createdAt,value
2017-08-23T00:00:35.008Z,12.67
2017-08-23T00:01:34.906Z,12.65
2017-08-23T00:02:34.891Z,12.67
2017-08-23T00:03:34.882Z,12.72
2017-08-23T00:04:34.879Z,12.65
2017-08-23T00:05:34.871Z,12.71
2017-08-23T00:06:34.964Z,12.65
2017-08-23T00:07:34.849Z,12.67
2017-08-23T00:08:34.840Z,12.67
2017-08-23T00:09:34.843Z,12.67
2017-08-23T00:10:34.823Z,12.67
2017-08-23T00:11:34.817Z,12.67
2017-08-23T00:12:34.907Z,12.62
2017-08-23T00:13:34.805Z,12.60
2017-08-23T00:14:34.791Z,12.64
2017-08-23T00:15:34.788Z,12.54
2017-08-23T00:16:34.772Z,12.68
2017-08-23T00:17:34.769Z,12.53
2017-08-23T00:18:34.855Z,12.52
2017-08-23T00:19:34.753Z,12.57
2017-08-23T00:20:34.739Z,12.65
2017-08-23T00:21:34.731Z,12.52
2017-08-23T00:22:34.721Z,12.54
2017-08-23T00:23:34.713Z,12.60
2017-08-23T00:24:34.804Z,12.54
2017-08-23T00:25:34.702Z,12.57
2017-08-23T00:26:34.687Z,12.54
2017-08-23T00:27:34.679Z,12.52
2017-08-23T00:28:34.671Z,12.54
2017-08-23T00:29:34.668Z,12.57
2017-08-23T00:30:34.759Z,12.56
2017-08-23T00:31:34.644Z,12.49
2017-08-23T00:32:34.645Z,12.49
2017-08-23T00:33:34.632Z,12.42
2017-08-23T00:34:34.624Z,12.45
2017-08-23T00:35:34.610Z,12.41
2017-08-23T00:36:34.701Z,12.37
2017-08-23T00:37:34.594Z,12.46
2017-08-23T00:38:34.585Z,12.42
2017-08-23T00:39:34.582Z,12.49
2017-08-23T00:40:34.566Z,12.49
2017-08-23T00:41:34.559Z,12.38
2017-08-23T00:42:34.551Z,12.45
2017-08-23T00:43:34.546Z,12.38
2017-08-23T00:44:34.632Z,12.38
2017-08-23T00:45:34.625Z,12.38
2017-08-23T00:46:34.521Z,12.39
2017-08-23T00:47:34.512Z,12.42
2017-08-23T00:48:34.498Z,12.34
2017-08-23T00:49:34.495Z,12.42
2017-08-23T00:50:34.482Z,12.42
2017-08-23T00:51:34.574Z,12.41
2017-08-23T00:52:34.468Z,12.38
2017-08-23T00:53:34.454Z,12.32
2017-08-23T00:54:34.446Z,12.37
2017-08-23T00:55:34.438Z,12.37
2017-08-23T00:56:34.429Z,12.37
2017-08-23T00:57:34.522Z,12.42
2017-08-23T00:58:34.412Z,12.32
2017-08-23T00:59:34.403Z,12.29
2017-08-23T01:00:34.393Z,12.35
2017-08-23T01:01:34.387Z,12.32
2017-08-23T01:02:34.377Z,12.31
2017-08-23T01:03:34.471Z,12.41
2017-08-23T01:04:34.360Z,12.32
2017-08-23T01:05:34.351Z,12.31
2017-08-23T01:06:34.345Z,12.38
2017-08-23T01:07:34.334Z,12.38
2017-08-23T01:08:34.324Z,12.32
2017-08-23T01:09:34.316Z,12.32
2017-08-23T01:10:34.310Z,12.41
2017-08-23T01:11:34.300Z,12.39
2017-08-23T01:12:34.291Z,12.31
2017-08-23T01:13:34.284Z,12.42
2017-08-23T01:14:34.279Z,12.39
2017-08-23T01:15:34.365Z,12.32
2017-08-23T01:16:34.256Z,12.35
2017-08-23T01:17:34.247Z,12.32
2017-08-23T01:18:34.239Z,12.32
2017-08-23T01:19:34.237Z,12.38
2017-08-23T01:20:34.222Z,12.32
2017-08-23T01:21:34.312Z,12.45
2017-08-23T01:22:34.204Z,12.39
2017-08-23T01:23:34.195Z,12.41
2017-08-23T01:24:34.186Z,12.34
2017-08-23T01:25:34.184Z,12.38
2017-08-23T01:26:34.175Z,12.35
2017-08-23T01:27:34.262Z,12.27
2017-08-23T01:28:34.152Z,12.32
2017-08-23T01:29:34.142Z,12.32
2017-08-23T01:30:34.135Z,12.34
2017-08-23T01:31:34.128Z,12.37
2017-08-23T01:32:34.116Z,12.29
2017-08-23T01:33:34.208Z,12.28
2017-08-23T01:34:34.119Z,12.37
2017-08-23T01:35:34.091Z,12.27
2017-08-23T01:36:34.082Z,12.32
2017-08-23T01:37:34.073Z,12.32
2017-08-23T01:38:34.065Z,12.29
2017-08-23T01:39:34.156Z,12.31
2017-08-23T01:40:34.047Z,12.21
2017-08-23T01:41:34.038Z,12.24
2017-08-23T01:42:34.029Z,12.14
2017-08-23T01:43:34.022Z,12.21
2017-08-23T01:44:34.017Z,12.17
2017-08-23T01:45:34.103Z,12.24
2017-08-23T01:46:33.999Z,12.10
2017-08-23T01:47:33.985Z,12.10
2017-08-23T01:48:33.981Z,12.16
2017-08-23T01:49:33.970Z,12.19
2017-08-23T01:50:33.959Z,12.10
2017-08-23T01:51:34.053Z,12.04
2017-08-23T01:52:33.939Z,12.05
2017-08-23T01:53:33.931Z,12.07
2017-08-23T01:54:33.921Z,12.02
2017-08-23T01:55:33.913Z,12.04
2017-08-23T01:56:33.907Z,12.04
2017-08-23T01:57:33.994Z,12.04
2017-08-23T01:58:33.885Z,11.94
2017-08-23T01:59:33.876Z,12.01
2017-08-23T02:00:33.866Z,11.94
2017-08-23T02:01:33.857Z,11.95
2017-08-23T02:02:33.850Z,12.02
2017-08-23T02:03:33.947Z,12.02
2017-08-23T02:04:33.834Z,11.96
2017-08-23T02:05:33.822Z,11.96
2017-08-23T02:06:33.812Z,11.99
2017-08-23T02:07:33.809Z,12.01
2017-08-23T02:08:33.794Z,11.86
2017-08-23T02:09:33.884Z,11.94
2017-08-23T02:10:33.776Z,11.85
2017-08-23T02:11:33.767Z,11.83
2017-08-23T02:12:33.762Z,11.94
2017-08-23T02:13:33.748Z,11.86
2017-08-23T02:14:33.740Z,11.86
2017-08-23T02:15:33.836Z,11.88
2017-08-23T02:16:33.726Z,11.90
2017-08-23T02:17:33.712Z,11.85
2017-08-23T02:18:33.709Z,11.90
2017-08-23T02:19:33.694Z,11.85
2017-08-23T02:20:33.686Z,11.86
2017-08-23T02:21:33.782Z,11.79
2017-08-23T02:22:33.673Z,11.85
2017-08-23T02:23:33.658Z,11.82
2017-08-23T02:24:33.647Z,11.82
2017-08-23T02:25:33.640Z,11.86
2017-08-23T02:26:33.636Z,11.79
2017-08-23T02:27:33.728Z,11.78
2017-08-23T02:28:33.611Z,11.86
2017-08-23T02:29:33.602Z,11.72
2017-08-23T02:30:33.593Z,11.78
2017-08-23T02:31:33.590Z,11.79
2017-08-23T02:32:33.575Z,11.72
2017-08-23T02:33:33.665Z,11.85
2017-08-23T02:34:33.557Z,11.76
2017-08-23T02:35:33.547Z,11.69
2017-08-23T02:36:33.537Z,11.75
2017-08-23T02:37:33.535Z,11.73
2017-08-23T02:38:33.521Z,11.82
2017-08-23T02:39:33.615Z,11.75
2017-08-23T02:40:33.508Z,11.73
2017-08-23T02:41:33.493Z,11.79
2017-08-23T02:42:33.489Z,11.67
2017-08-23T02:43:33.474Z,11.73
2017-08-23T02:44:33.464Z,11.75
2017-08-23T02:45:33.555Z,11.73
2017-08-23T02:46:33.446Z,11.67
2017-08-23T02:47:33.437Z,11.78
2017-08-23T02:48:33.428Z,11.75
2017-08-23T02:49:33.418Z,11.79
2017-08-23T02:50:33.409Z,11.73
2017-08-23T02:51:33.400Z,11.72
2017-08-23T02:52:33.391Z,11.70
2017-08-23T02:53:33.487Z,11.73
2017-08-23T02:54:33.377Z,11.73
2017-08-23T02:55:33.366Z,11.69
2017-08-23T02:56:33.353Z,11.70
2017-08-23T02:57:33.344Z,11.67
2017-08-23T02:58:33.335Z,11.67
2017-08-23T02:59:33.327Z,11.72
2017-08-23T03:00:33.316Z,11.65
2017-08-23T03:01:33.313Z,11.70
2017-08-23T03:02:33.300Z,11.69
2017-08-23T03:03:33.290Z,11.69
2017-08-23T03:04:33.385Z,11.64
2017-08-23T03:05:33.269Z,11.67
2017-08-23T03:06:33.262Z,11.69
2017-08-23T03:07:33.258Z,11.70
2017-08-23T03:08:33.248Z,11.65
2017-08-23T03:09:33.236Z,11.69
2017-08-23T03:10:33.225Z,11.73
2017-08-23T03:11:33.221Z,11.67
2017-08-23T03:12:33.205Z,11.70
2017-08-23T03:13:33.196Z,11.70
2017-08-23T03:14:33.292Z,11.75
2017-08-23T03:15:33.183Z,11.69
2017-08-23T03:16:33.169Z,11.69
2017-08-23T03:17:33.158Z,11.67
2017-08-23T03:18:33.150Z,11.70
2017-08-23T03:19:33.147Z,11.73
2017-08-23T03:20:33.236Z,11.64
2017-08-23T03:21:33.121Z,11.64
2017-08-23T03:22:33.113Z,11.62
2017-08-23T03:23:33.104Z,11.61
2017-08-23T03:24:33.100Z,11.60
2017-08-23T03:25:33.090Z,11.55
2017-08-23T03:26:33.176Z,11.57
2017-08-23T03:27:33.066Z,11.60
2017-08-23T03:28:33.055Z,11.54
2017-08-23T03:29:33.051Z,11.52
2017-08-23T03:30:33.044Z,11.58
2017-08-23T03:31:33.028Z,11.60
2017-08-23T03:32:33.017Z,11.54
2017-08-23T03:33:33.119Z,11.62
2017-08-23T03:34:33.105Z,11.55
2017-08-23T03:35:32.990Z,11.54
2017-08-23T03:36:32.985Z,11.54
2017-08-23T03:37:32.970Z,11.55
2017-08-23T03:38:32.961Z,11.52
2017-08-23T03:39:32.955Z,11.61
2017-08-23T03:40:33.041Z,11.60
2017-08-23T03:41:32.932Z,11.49
2017-08-23T03:42:32.928Z,11.51
2017-08-23T03:43:32.920Z,11.46
2017-08-23T03:44:32.903Z,11.51
2017-08-23T03:45:32.894Z,11.47
2017-08-23T03:46:32.984Z,11.49
2017-08-23T03:47:32.875Z,11.52
2017-08-23T03:48:33.116Z,11.47
2017-08-23T03:49:32.862Z,11.60
2017-08-23T03:50:32.852Z,11.51
2017-08-23T03:51:32.838Z,11.54
2017-08-23T03:52:32.933Z,11.49
2017-08-23T03:53:32.817Z,11.55
2017-08-23T03:54:32.811Z,11.57
2017-08-23T03:55:32.799Z,11.51
2017-08-23T03:56:32.789Z,11.51
2017-08-23T03:57:32.784Z,11.51
2017-08-23T03:58:32.871Z,11.58
2017-08-23T03:59:32.762Z,11.47
2017-08-23T04:00:32.751Z,11.47
2017-08-23T04:01:32.747Z,11.46
2017-08-23T04:02:32.731Z,11.60
2017-08-23T04:03:32.870Z,11.51
2017-08-23T04:04:32.818Z,11.49
2017-08-23T04:05:32.803Z,11.46
2017-08-23T04:06:32.693Z,11.47
2017-08-23T04:07:32.689Z,11.49
2017-08-23T04:08:32.679Z,11.54
2017-08-23T04:09:32.664Z,11.51
2017-08-23T04:10:32.756Z,11.52
2017-08-23T04:11:32.662Z,11.52
2017-08-23T04:12:32.636Z,11.43
2017-08-23T04:13:32.626Z,11.46
2017-08-23T04:14:32.616Z,11.44
2017-08-23T04:15:32.608Z,11.44
2017-08-23T04:16:32.697Z,11.49
2017-08-23T04:17:32.588Z,11.47
2017-08-23T04:18:32.579Z,11.51
2017-08-23T04:19:32.569Z,11.46
2017-08-23T04:20:32.559Z,11.51
2017-08-23T04:21:32.654Z,11.47
2017-08-23T04:22:32.645Z,11.39
2017-08-23T04:23:32.530Z,11.43
2017-08-23T04:24:32.519Z,11.46
2017-08-23T04:25:32.510Z,11.37
2017-08-23T04:26:32.507Z,11.37
2017-08-23T04:27:32.491Z,11.42
2017-08-23T04:28:32.581Z,11.32
2017-08-23T04:29:32.723Z,11.42
2017-08-23T04:30:32.462Z,11.39
2017-08-23T04:31:32.453Z,11.36
2017-08-23T04:32:32.443Z,11.44
2017-08-23T04:33:32.433Z,11.37
2017-08-23T04:34:32.524Z,11.35
2017-08-23T04:35:32.416Z,11.42
2017-08-23T04:36:32.404Z,11.42
2017-08-23T04:37:32.396Z,11.43
2017-08-23T04:38:32.386Z,11.39
2017-08-23T04:39:32.377Z,11.36
2017-08-23T04:40:32.473Z,11.47
2017-08-23T04:41:32.362Z,11.42
2017-08-23T04:42:32.347Z,11.39
2017-08-23T04:43:32.343Z,11.43
2017-08-23T04:44:32.327Z,11.37
2017-08-23T04:45:32.352Z,11.42
2017-08-23T04:46:32.415Z,11.40
2017-08-23T04:47:32.605Z,11.42
2017-08-23T04:48:32.288Z,11.43
2017-08-23T04:49:32.279Z,11.42
2017-08-23T04:50:32.275Z,11.40
2017-08-23T04:51:32.260Z,11.40
2017-08-23T04:52:32.349Z,11.46
2017-08-23T04:53:32.242Z,11.36
2017-08-23T04:54:32.233Z,11.33
2017-08-23T04:55:32.221Z,11.46
2017-08-23T04:56:32.211Z,11.44
2017-08-23T04:57:32.202Z,11.44
2017-08-23T04:58:32.292Z,11.47
2017-08-23T04:59:32.183Z,11.44
2017-08-23T05:00:32.174Z,11.44
2017-08-23T05:01:32.164Z,11.51
2017-08-23T05:02:32.160Z,11.49
2017-08-23T05:03:32.144Z,11.54
2017-08-23T05:04:32.234Z,11.44
2017-08-23T05:05:32.125Z,11.60
2017-08-23T05:06:32.121Z,11.55
2017-08-23T05:07:32.107Z,11.57
2017-08-23T05:08:32.096Z,11.55
2017-08-23T05:09:32.087Z,11.54
2017-08-23T05:10:32.177Z,11.58
2017-08-23T05:11:32.175Z,11.58
2017-08-23T05:12:32.058Z,11.61
2017-08-23T05:13:32.048Z,11.58
2017-08-23T05:14:32.039Z,11.62
2017-08-23T05:15:32.030Z,11.61
2017-08-23T05:16:32.126Z,11.62
2017-08-23T05:17:32.011Z,11.62
2017-08-23T05:18:32.001Z,11.62
2017-08-23T05:19:32.094Z,11.62
2017-08-23T05:20:31.988Z,11.62
2017-08-23T05:21:31.973Z,11.69
2017-08-23T05:22:32.064Z,11.69
2017-08-23T05:23:31.954Z,11.67
2017-08-23T05:24:31.946Z,11.67
2017-08-23T05:25:31.934Z,11.65
2017-08-23T05:26:31.926Z,11.65
2017-08-23T05:27:31.918Z,11.70
2017-08-23T05:28:32.008Z,11.75
2017-08-23T05:29:31.902Z,11.67
2017-08-23T05:30:31.888Z,11.73
2017-08-23T05:31:31.878Z,11.88
2017-08-23T05:32:31.870Z,11.95
2017-08-23T05:33:31.865Z,12.05
2017-08-23T05:34:31.950Z,12.16
2017-08-23T05:35:31.841Z,12.31
2017-08-23T05:36:31.831Z,12.53
2017-08-23T05:37:31.822Z,12.77
2017-08-23T05:38:31.819Z,12.95
2017-08-23T05:39:31.804Z,13.29
2017-08-23T05:40:31.795Z,13.32
2017-08-23T05:41:31.885Z,13.60
2017-08-23T05:42:31.776Z,13.75
2017-08-23T05:43:31.769Z,14.10
2017-08-23T05:44:31.759Z,14.35
2017-08-23T05:45:31.757Z,14.57
2017-08-23T05:46:31.748Z,14.92
2017-08-23T05:47:31.835Z,15.34
2017-08-23T05:48:31.725Z,15.47
2017-08-23T05:49:31.717Z,15.39
2017-08-23T05:50:31.710Z,15.35
2017-08-23T05:51:31.701Z,15.34
2017-08-23T05:52:31.693Z,15.28
2017-08-23T05:53:31.785Z,15.27
2017-08-23T05:54:31.684Z,15.32
2017-08-23T05:55:31.671Z,15.43
2017-08-23T05:56:31.666Z,15.51
2017-08-23T05:57:31.655Z,15.76
2017-08-23T05:58:31.653Z,16.02
2017-08-23T05:59:31.739Z,16.21
2017-08-23T06:00:31.636Z,16.39
2017-08-23T06:01:31.625Z,16.56
2017-08-23T06:02:31.622Z,16.64
2017-08-23T06:03:31.610Z,16.61
2017-08-23T06:04:31.602Z,16.67
2017-08-23T06:05:31.702Z,16.78
2017-08-23T06:06:31.589Z,17.07
2017-08-23T06:07:31.582Z,17.25
2017-08-23T06:08:31.574Z,17.01
2017-08-23T06:09:31.575Z,16.82
2017-08-23T06:10:31.562Z,16.53
2017-08-23T06:11:31.555Z,16.30
2017-08-23T06:12:31.647Z,16.23
2017-08-23T06:13:31.541Z,16.31
2017-08-23T06:14:31.534Z,16.48
2017-08-23T06:15:31.534Z,16.64
2017-08-23T06:16:31.522Z,16.98
2017-08-23T06:17:31.515Z,17.31
2017-08-23T06:18:31.609Z,17.59
2017-08-23T06:19:31.509Z,17.70
2017-08-23T06:20:31.496Z,17.66
2017-08-23T06:21:31.496Z,17.59
2017-08-23T06:22:31.484Z,17.55
2017-08-23T06:23:31.485Z,17.49
2017-08-23T06:24:31.472Z,17.41
2017-08-23T06:25:31.466Z,17.41
2017-08-23T06:26:31.566Z,17.58
2017-08-23T06:27:31.555Z,17.75
2017-08-23T06:28:31.458Z,18.02
2017-08-23T06:29:31.442Z,18.55
2017-08-23T06:30:31.437Z,19.25
2017-08-23T06:31:31.433Z,19.78
2017-08-23T06:32:31.424Z,20.35
2017-08-23T06:33:31.521Z,20.94
2017-08-23T06:34:31.414Z,21.58
2017-08-23T06:35:31.415Z,22.24
2017-08-23T06:36:31.404Z,22.33
2017-08-23T06:37:31.404Z,22.49
2017-08-23T06:38:31.393Z,22.72
2017-08-23T06:39:31.491Z,22.92
2017-08-23T06:40:31.386Z,22.92
2017-08-23T06:41:31.382Z,22.91
2017-08-23T06:42:31.381Z,22.68
2017-08-23T06:43:31.378Z,23.28
2017-08-23T06:44:31.370Z,23.90
2017-08-23T06:45:31.466Z,24.21
2017-08-23T06:46:31.363Z,24.60
2017-08-23T06:47:31.366Z,25.21
2017-08-23T06:48:31.360Z,26.07
2017-08-23T06:49:31.358Z,26.36
2017-08-23T06:50:31.361Z,26.66
2017-08-23T06:51:31.466Z,26.84
2017-08-23T06:52:31.359Z,26.75
2017-08-23T06:53:31.366Z,26.44
2017-08-23T06:54:31.367Z,26.26
2017-08-23T06:55:31.373Z,25.87
2017-08-23T06:56:31.376Z,25.33
2017-08-23T06:57:31.475Z,24.53
2017-08-23T06:58:31.380Z,24.34
2017-08-23T06:59:31.386Z,23.75
2017-08-23T07:00:31.391Z,23.53
2017-08-23T07:01:31.404Z,23.05
2017-08-23T07:02:31.405Z,22.80
2017-08-23T07:03:31.513Z,22.09
2017-08-23T07:04:31.421Z,21.27
2017-08-23T07:05:31.436Z,20.73
2017-08-23T07:06:31.444Z,20.39
2017-08-23T07:07:31.448Z,20.29
2017-08-23T07:08:31.459Z,19.74
2017-08-23T07:09:31.568Z,19.77
2017-08-23T07:10:31.482Z,19.65
2017-08-23T07:11:31.491Z,19.56
2017-08-23T07:12:31.501Z,19.55
2017-08-23T07:13:31.511Z,19.47
2017-08-23T07:14:31.529Z,19.37
2017-08-23T07:15:31.640Z,19.31
2017-08-23T07:16:31.546Z,19.25
2017-08-23T07:17:31.573Z,19.22
2017-08-23T07:18:31.569Z,19.13
2017-08-23T07:19:31.681Z,19.16
2017-08-23T07:20:31.591Z,19.28
2017-08-23T07:21:31.703Z,19.43
2017-08-23T07:22:31.615Z,19.56
2017-08-23T07:23:31.628Z,19.55
2017-08-23T07:24:31.643Z,19.39
2017-08-23T07:25:31.649Z,19.21
2017-08-23T07:26:31.660Z,19.11
2017-08-23T07:27:31.778Z,18.95
2017-08-23T07:28:31.681Z,18.87
2017-08-23T07:29:31.694Z,18.92
2017-08-23T07:30:31.701Z,19.00
2017-08-23T07:31:31.717Z,19.04
2017-08-23T07:32:31.725Z,19.14
2017-08-23T07:33:31.828Z,19.21
2017-08-23T07:34:31.735Z,19.13
2017-08-23T07:35:31.744Z,18.94
2017-08-23T07:36:31.750Z,18.90
2017-08-23T07:37:31.759Z,18.92
2017-08-23T07:38:31.768Z,18.98
2017-08-23T07:39:31.878Z,19.13
2017-08-23T07:40:31.776Z,19.16
2017-08-23T07:41:31.781Z,19.10
2017-08-23T07:42:31.788Z,19.16
2017-08-23T07:43:31.791Z,19.26
2017-08-23T07:44:31.795Z,19.25
2017-08-23T07:45:31.799Z,19.43
2017-08-23T07:46:31.805Z,19.46
2017-08-23T07:47:31.807Z,19.56
2017-08-23T07:48:31.818Z,19.61
2017-08-23T07:49:31.919Z,19.63
2017-08-23T07:50:31.817Z,19.58
2017-08-23T07:51:31.820Z,19.62
2017-08-23T07:52:31.820Z,19.66
2017-08-23T07:53:31.825Z,19.56
2017-08-23T07:54:31.825Z,19.47
2017-08-23T07:55:31.927Z,19.41
2017-08-23T07:56:31.829Z,19.48
2017-08-23T07:57:31.831Z,19.48
2017-08-23T07:58:31.831Z,19.59
2017-08-23T07:59:31.832Z,19.68
2017-08-23T08:00:31.834Z,19.78
2017-08-23T08:01:31.939Z,19.95
2017-08-23T08:02:31.835Z,19.94
2017-08-23T08:03:31.837Z,20.03
2017-08-23T08:04:31.838Z,20.23
2017-08-23T08:05:31.838Z,20.33
2017-08-23T08:06:31.838Z,20.42
2017-08-23T08:07:31.940Z,20.55
2017-08-23T08:08:31.838Z,20.64
2017-08-23T08:09:31.843Z,20.52
2017-08-23T08:10:31.838Z,20.59
2017-08-23T08:11:31.844Z,20.57
2017-08-23T08:12:31.837Z,20.55
2017-08-23T08:13:31.942Z,20.70
2017-08-23T08:14:31.843Z,20.84
2017-08-23T08:15:31.840Z,20.74
2017-08-23T08:16:31.837Z,20.66
2017-08-23T08:17:31.837Z,20.59
2017-08-23T08:18:31.836Z,20.43
2017-08-23T08:19:31.842Z,20.43
2017-08-23T08:20:31.841Z,20.39
2017-08-23T08:21:31.836Z,20.26
2017-08-23T08:22:31.840Z,20.14
2017-08-23T08:23:31.840Z,20.05
2017-08-23T08:24:31.933Z,20.08
2017-08-23T08:25:31.839Z,20.13
2017-08-23T08:26:31.832Z,20.32
2017-08-23T08:27:31.832Z,20.54
2017-08-23T08:28:31.830Z,20.47
2017-08-23T08:29:31.831Z,20.51
2017-08-23T08:30:31.828Z,20.33
2017-08-23T08:31:31.834Z,20.32
2017-08-23T08:32:31.832Z,20.17
2017-08-23T08:33:31.825Z,20.01
2017-08-23T08:34:31.926Z,19.86
2017-08-23T08:35:31.823Z,19.83
2017-08-23T08:36:31.827Z,19.77
2017-08-23T08:37:31.820Z,19.83
2017-08-23T08:38:31.820Z,19.84
2017-08-23T08:39:31.818Z,19.94
2017-08-23T08:40:31.922Z,19.94
2017-08-23T08:41:31.821Z,20.06
2017-08-23T08:42:31.815Z,20.03
2017-08-23T08:43:31.814Z,20.14
2017-08-23T08:44:31.811Z,20.26
2017-08-23T08:45:31.810Z,20.54
2017-08-23T08:46:31.915Z,20.54
2017-08-23T08:47:31.807Z,20.69
2017-08-23T08:48:31.806Z,20.69
2017-08-23T08:49:31.810Z,20.62
2017-08-23T08:50:31.810Z,20.55
2017-08-23T08:51:31.802Z,20.50
2017-08-23T08:52:31.907Z,20.43
2017-08-23T08:53:31.800Z,20.47
2017-08-23T08:54:31.801Z,20.52
2017-08-23T08:55:31.904Z,20.70
2017-08-23T08:56:31.795Z,20.67
2017-08-23T08:57:31.794Z,20.76
2017-08-23T08:58:31.793Z,20.57
2017-08-23T08:59:31.897Z,20.57
2017-08-23T09:00:31.796Z,20.50
2017-08-23T09:01:31.788Z,20.54
2017-08-23T09:02:31.788Z,20.62
2017-08-23T09:03:31.788Z,20.70
2017-08-23T09:04:31.789Z,21.10
2017-08-23T09:05:31.883Z,21.24
2017-08-23T09:06:31.782Z,21.25
2017-08-23T09:07:31.887Z,21.40
2017-08-23T09:08:31.785Z,21.43
2017-08-23T09:09:31.782Z,21.62
2017-08-23T09:10:31.777Z,21.68
2017-08-23T09:11:31.778Z,21.65
2017-08-23T09:12:31.774Z,21.79
2017-08-23T09:13:31.880Z,21.92
2017-08-23T09:14:31.773Z,21.82
2017-08-23T09:15:31.774Z,21.77
2017-08-23T09:16:31.793Z,21.65
2017-08-23T09:17:31.770Z,21.65
2017-08-23T09:18:31.770Z,21.79
2017-08-23T09:19:31.869Z,21.80
2017-08-23T09:20:31.772Z,21.82
2017-08-23T09:21:31.772Z,21.91
2017-08-23T09:22:31.767Z,21.98
2017-08-23T09:23:31.765Z,22.10
2017-08-23T09:24:31.769Z,22.09
2017-08-23T09:25:31.763Z,22.03
2017-08-23T09:26:31.763Z,22.24
2017-08-23T09:27:31.762Z,22.28
2017-08-23T09:28:31.762Z,22.42
2017-08-23T09:29:31.861Z,22.43
2017-08-23T09:30:31.760Z,22.40
2017-08-23T09:31:31.761Z,22.60
2017-08-23T09:32:31.764Z,22.61
2017-08-23T09:33:31.759Z,22.62
2017-08-23T09:34:31.760Z,22.52
2017-08-23T09:35:31.864Z,22.62
2017-08-23T09:36:31.762Z,22.68
2017-08-23T09:37:31.761Z,22.68
2017-08-23T09:38:31.758Z,22.72
2017-08-23T09:39:31.762Z,22.72
2017-08-23T09:40:31.757Z,22.60
2017-08-23T09:41:31.856Z,22.40
2017-08-23T09:42:31.761Z,22.31
2017-08-23T09:43:31.763Z,22.20
2017-08-23T09:44:31.760Z,22.22
2017-08-23T09:45:31.854Z,22.24
2017-08-23T09:46:31.754Z,22.28
2017-08-23T09:47:31.857Z,22.30
2017-08-23T09:48:31.754Z,22.36
2017-08-23T09:49:31.753Z,22.49
2017-08-23T09:50:31.754Z,22.49
2017-08-23T09:51:31.753Z,22.72
2017-08-23T09:52:31.752Z,22.73
2017-08-23T09:53:31.852Z,22.77
2017-08-23T09:54:31.852Z,22.73
2017-08-23T09:55:31.751Z,22.86
2017-08-23T09:56:31.756Z,22.92
2017-08-23T09:57:31.756Z,23.00
2017-08-23T09:58:31.756Z,22.97
2017-08-23T09:59:31.757Z,23.02
2017-08-23T10:00:31.855Z,23.07
2017-08-23T10:01:31.750Z,23.01
2017-08-23T10:02:31.753Z,22.80
2017-08-23T10:03:31.750Z,22.68
2017-08-23T10:04:31.749Z,22.46
2017-08-23T10:05:31.749Z,22.31
2017-08-23T10:06:31.754Z,22.18
2017-08-23T10:07:31.749Z,21.98
2017-08-23T10:08:31.748Z,21.91
2017-08-23T10:09:31.747Z,21.82
2017-08-23T10:10:31.747Z,21.68
2017-08-23T10:11:31.847Z,21.52
2017-08-23T10:12:31.746Z,21.56
2017-08-23T10:13:31.747Z,21.44
2017-08-23T10:14:31.747Z,21.34
2017-08-23T10:15:31.749Z,21.42
2017-08-23T10:16:31.744Z,21.35
2017-08-23T10:17:31.849Z,21.43
2017-08-23T10:18:31.743Z,21.52
2017-08-23T10:19:31.744Z,21.61
2017-08-23T10:20:31.741Z,21.91
2017-08-23T10:21:31.742Z,22.03
2017-08-23T10:22:31.740Z,22.17
2017-08-23T10:23:31.840Z,22.33
2017-08-23T10:24:31.745Z,22.46
2017-08-23T10:25:31.739Z,22.40
2017-08-23T10:26:31.739Z,22.42
2017-08-23T10:27:31.739Z,22.42
2017-08-23T10:28:31.738Z,22.36
2017-08-23T10:29:31.745Z,22.52
2017-08-23T10:30:31.738Z,22.54
2017-08-23T10:31:31.845Z,22.47
2017-08-23T10:32:31.843Z,22.39
2017-08-23T10:33:31.743Z,22.35
2017-08-23T10:34:31.736Z,22.40
2017-08-23T10:35:31.737Z,22.35
2017-08-23T10:36:31.735Z,22.43
2017-08-23T10:37:31.836Z,22.33
2017-08-23T10:38:32.042Z,22.47
2017-08-23T10:39:31.741Z,22.35
2017-08-23T10:40:31.735Z,22.33
2017-08-23T10:41:31.734Z,22.25
2017-08-23T10:42:31.741Z,22.22
2017-08-23T10:43:31.834Z,22.24
2017-08-23T10:44:31.733Z,22.45
2017-08-23T10:45:31.733Z,22.52
2017-08-23T10:46:31.733Z,22.67
2017-08-23T10:47:31.738Z,22.68
2017-08-23T10:48:31.732Z,22.76
2017-08-23T10:49:31.831Z,22.79
2017-08-23T10:50:31.731Z,22.88
2017-08-23T10:51:31.730Z,22.92
2017-08-23T10:52:31.729Z,22.90
2017-08-23T10:53:31.729Z,22.92
2017-08-23T10:54:31.730Z,22.95
2017-08-23T10:55:31.985Z,23.00
2017-08-23T10:56:31.748Z,22.91
2017-08-23T10:57:31.733Z,22.80
2017-08-23T10:58:31.728Z,22.79
2017-08-23T10:59:31.730Z,22.72
2017-08-23T11:00:31.727Z,22.73
2017-08-23T11:01:31.834Z,22.85
2017-08-23T11:02:31.733Z,22.86
2017-08-23T11:03:31.727Z,22.95
2017-08-23T11:04:31.733Z,23.09
2017-08-23T11:05:31.726Z,23.22
2017-08-23T11:06:31.726Z,23.25
2017-08-23T11:07:31.733Z,23.27
2017-08-23T11:08:31.726Z,23.23
2017-08-23T11:09:31.727Z,23.33
2017-08-23T11:10:31.726Z,23.19
2017-08-23T11:11:31.727Z,23.15
2017-08-23T11:12:31.726Z,23.20
2017-08-23T11:13:31.981Z,22.98
2017-08-23T11:14:31.726Z,22.95
2017-08-23T11:15:31.732Z,22.85
2017-08-23T11:16:31.725Z,22.91
2017-08-23T11:17:31.731Z,22.90
2017-08-23T11:18:31.725Z,22.95
2017-08-23T11:19:31.981Z,22.92
2017-08-23T11:20:31.724Z,22.92
2017-08-23T11:21:32.027Z,22.83
2017-08-23T11:22:31.724Z,22.85
2017-08-23T11:23:31.724Z,22.82
2017-08-23T11:24:31.724Z,22.88
2017-08-23T11:25:31.825Z,22.94
2017-08-23T11:26:31.723Z,22.94
2017-08-23T11:27:31.723Z,23.05
2017-08-23T11:28:31.722Z,23.07
2017-08-23T11:29:31.723Z,23.27
2017-08-23T11:30:32.023Z,23.48
2017-08-23T11:31:31.829Z,23.83
2017-08-23T11:32:31.722Z,24.10
2017-08-23T11:33:31.722Z,24.35
2017-08-23T11:34:31.723Z,24.55
2017-08-23T11:35:31.723Z,24.62
2017-08-23T11:36:31.729Z,24.43
2017-08-23T11:37:31.729Z,24.28
2017-08-23T11:38:31.824Z,24.22
2017-08-23T11:39:32.025Z,24.28
2017-08-23T11:40:31.731Z,24.37
2017-08-23T11:41:31.724Z,24.53
2017-08-23T11:42:31.725Z,24.58
2017-08-23T11:43:31.726Z,24.60
2017-08-23T11:44:31.832Z,24.64
2017-08-23T11:45:31.727Z,24.55
2017-08-23T11:46:31.734Z,24.57
2017-08-23T11:47:31.728Z,24.43
2017-08-23T11:48:31.729Z,24.50
2017-08-23T11:49:31.731Z,24.49
2017-08-23T11:50:32.039Z,24.50
2017-08-23T11:51:31.731Z,24.53
2017-08-23T11:52:31.732Z,24.60
2017-08-23T11:53:31.745Z,24.62
2017-08-23T11:54:31.740Z,24.61
2017-08-23T11:55:31.735Z,24.58
2017-08-23T11:56:31.841Z,24.68
2017-08-23T11:57:31.736Z,24.81
2017-08-23T11:58:31.767Z,24.76
2017-08-23T11:59:31.737Z,24.52
2017-08-23T12:00:31.741Z,24.47
2017-08-23T12:01:31.738Z,24.52
2017-08-23T12:02:31.840Z,24.39
2017-08-23T12:03:31.740Z,24.25
2017-08-23T12:04:31.741Z,24.25
2017-08-23T12:05:31.742Z,24.37
2017-08-23T12:06:31.742Z,24.25
2017-08-23T12:07:31.818Z,24.27
2017-08-23T12:08:31.850Z,24.35
2017-08-23T12:09:31.745Z,24.47
2017-08-23T12:10:31.744Z,24.76
2017-08-23T12:11:31.746Z,24.90
2017-08-23T12:12:31.746Z,25.10
2017-08-23T12:13:31.747Z,25.39
2017-08-23T12:14:31.854Z,25.60
2017-08-23T12:15:31.749Z,25.85
2017-08-23T12:16:31.749Z,25.94
2017-08-23T12:17:31.752Z,26.09
2017-08-23T12:18:31.752Z,26.07
2017-08-23T12:19:31.755Z,26.09
2017-08-23T12:20:31.855Z,26.25
2017-08-23T12:21:31.762Z,26.17
2017-08-23T12:22:31.767Z,26.10
2017-08-23T12:23:31.758Z,26.06
2017-08-23T12:24:31.761Z,25.94
2017-08-23T12:25:31.761Z,25.90
2017-08-23T12:26:31.864Z,25.82
2017-08-23T12:27:31.770Z,25.67
2017-08-23T12:28:31.771Z,25.51
2017-08-23T12:29:31.768Z,25.30
2017-08-23T12:30:31.768Z,25.08
2017-08-23T12:31:32.020Z,24.58
2017-08-23T12:32:31.871Z,24.34
2017-08-23T12:33:31.774Z,24.13
2017-08-23T12:34:31.779Z,23.98
2017-08-23T12:35:31.775Z,23.79
2017-08-23T12:36:31.776Z,23.79
2017-08-23T12:37:31.783Z,23.76
2017-08-23T12:38:31.878Z,23.79
2017-08-23T12:39:31.779Z,23.80
2017-08-23T12:40:31.779Z,23.85
2017-08-23T12:41:31.781Z,23.76
2017-08-23T12:42:31.787Z,23.66
2017-08-23T12:43:31.782Z,23.65
2017-08-23T12:44:31.883Z,23.38
2017-08-23T12:45:31.785Z,23.28
2017-08-23T12:46:31.792Z,23.25
2017-08-23T12:47:31.787Z,23.25
2017-08-23T12:48:31.791Z,23.22
2017-08-23T12:49:31.792Z,23.19
2017-08-23T12:50:31.888Z,23.09
2017-08-23T12:51:31.787Z,22.98
2017-08-23T12:52:31.792Z,23.02